Vingaren — OZ2131 — position and weather

sailwx.info

Track history (hours):
 
Tides and Currents Weather Stations Pressure Air Temp Water Temp Dewpoint Dewpoint Depression Visibility Wind Speed Wind Dir Waves Ship Positions

Vingaren

Last reported at 2014-Nov-26 12:28 UTC. Time now 2014-Nov-27 16:06 UTC.
Position N 59°16' E 017°49'.

Length 89 m; draft 3.9 m.

Type: Cargo ship. MMSI: 231844000.

Date/timePositionNaut miles runAvg speedWind from/ knotsBaromVisibWave heightAir tempDewpointWater temp
2014-Nov-26 12:28N 59°16' E 017°49'5 4.1
2014-Nov-26 11:16N 59°20' E 017°53'0 0.2
2014-Nov-26 10:28N 59°20' E 017°53'0 0.2
2014-Nov-26 09:32N 59°20' E 017°54'  
2014-Nov-24 05:13N 59°22' E 017°49'4 5.6
2014-Nov-24 04:34N 59°19' E 017°55'3 2.7
2014-Nov-24 03:33N 59°17' E 017°52'0 0.0
2014-Nov-24 01:10N 59°17' E 017°52'0 0.0
2014-Nov-23 18:16N 59°17' E 017°52'0 0.1
2014-Nov-23 17:28N 59°17' E 017°52'  
Track history (hours):
 
Tides and Currents Weather Stations Pressure Air Temp Water Temp Dewpoint Dewpoint Depression Visibility Wind Speed Wind Dir Waves Ship Positions

Vingaren

Last reported at 2014-Nov-26 12:28 UTC. Time now 2014-Nov-27 16:06 UTC.
Position N 59°16' E 017°49'.

Length 89 m; draft 3.9 m.

Type: Cargo ship. MMSI: 231844000.

Date/timePositionNaut miles runAvg speedWind from/ knotsBaromVisibWave heightAir tempDewpointWater temp
2014-Nov-26 12:28N 59°16' E 017°49'5 4.1
2014-Nov-26 11:16N 59°20' E 017°53'0 0.2
2014-Nov-26 10:28N 59°20' E 017°53'0 0.2
2014-Nov-26 09:32N 59°20' E 017°54'  
2014-Nov-24 05:13N 59°22' E 017°49'4 5.6
2014-Nov-24 04:34N 59°19' E 017°55'3 2.7
2014-Nov-24 03:33N 59°17' E 017°52'0 0.0
2014-Nov-24 01:10N 59°17' E 017°52'0 0.0
2014-Nov-23 18:16N 59°17' E 017°52'0 0.1
2014-Nov-23 17:28N 59°17' E 017°52'  

Dump ship's entire track history